Time;durP1;ratioP1;P1;durP2;ratioP2;P2;SDS_P1;SDS_P2;PMS_P1;PMS_P2;Temp;Humidity;BMP_temperature;BMP_pressure;BME280_temperature;BME280_humidity;BME280_pressure;Samples;Min_cycle;Max_cycle;Signal;HPM_P1;HPM_P2
2021/07/19 00:00:38;;;;;;;5.80;0.50;;;;;;;;;;4989725;28;20038;-71
2021/07/19 00:03:06;;;;;;;1.70;0.30;;;;;;;;;;5007353;28;20095;-73
2021/07/19 00:05:33;;;;;;;0.30;0.20;;;;;;;;;;4993847;28;20018;-73
2021/07/19 00:08:00;;;;;;;0.73;0.30;;;;;;;;;;4991482;28;20030;-72
2021/07/19 00:10:27;;;;;;;0.80;0.20;;;;;;;;;;5010443;28;20097;-71
2021/07/19 00:12:55;;;;;;;0.68;0.52;;;;;;;;;;5009281;28;20041;-71
2021/07/19 00:15:24;;;;;;;0.88;0.30;;;;;;;;;;5011019;28;20092;-72
2021/07/19 00:17:51;;;;;;;0.38;0.20;;;;;;;;;;5008149;28;20030;-73
2021/07/19 00:20:19;;;;;;;0.65;0.20;;;;;;;;;;5008531;28;20048;-69
2021/07/19 00:22:46;;;;;;;0.70;0.30;;;;;;;;;;5009810;28;20033;-73
2021/07/19 00:25:14;;;;;;;1.13;0.20;;;;;;;;;;5002661;28;20030;-73
2021/07/19 00:27:42;;;;;;;0.80;0.55;;;;;;;;;;5003490;28;20034;-72
2021/07/19 00:30:14;;;;;;;1.77;0.20;;;;;;;;;;5001127;28;20040;-73
2021/07/19 00:32:42;;;;;;;1.67;0.35;;;;;;;;;;4988615;28;20038;-71
2021/07/19 00:35:09;;;;;;;0.68;0.25;;;;;;;;;;5007690;28;20022;-71
2021/07/19 00:37:37;;;;;;;0.52;0.20;;;;;;;;;;5008983;28;20390;-71
2021/07/19 00:40:14;;;;;;;1.33;0.30;;;;;;;;;;4994833;28;20056;-72
2021/07/19 00:42:44;;;;;;;1.80;0.22;;;;;;;;;;4998898;28;20113;-72
2021/07/19 00:45:12;;;;;;;0.47;0.20;;;;;;;;;;5012976;28;20045;-72
2021/07/19 00:47:39;;;;;;;1.27;0.30;;;;;;;;;;4994220;28;20498;-71
2021/07/19 00:50:07;;;;;;;1.50;0.28;;;;;;;;;;5011129;28;20121;-73
2021/07/19 00:52:34;;;;;;;3.10;0.30;;;;;;;;;;5005784;28;20736;-70
2021/07/19 00:55:02;;;;;;;1.02;0.32;;;;;;;;;;4995312;28;20482;-72
2021/07/19 00:57:31;;;;;;;0.50;0.30;;;;;;;;;;5010179;28;20029;-72
2021/07/19 01:00:00;;;;;;;1.73;0.50;;;;;;;;;;5012633;28;20068;-73
2021/07/19 01:02:28;;;;;;;1.25;0.50;;;;;;;;;;5010168;28;20026;-74
2021/07/19 01:04:56;;;;;;;1.92;0.30;;;;;;;;;;5009763;28;20374;-72
2021/07/19 01:07:24;;;;;;;1.48;0.40;;;;;;;;;;5004776;28;20440;-73
2021/07/19 01:09:51;;;;;;;1.15;0.40;;;;;;;;;;5013008;28;20082;-73
2021/07/19 01:12:18;;;;;;;0.90;0.30;;;;;;;;;;5010190;28;20034;-73
2021/07/19 01:14:46;;;;;;;0.95;0.35;;;;;;;;;;5003575;28;20418;-74
2021/07/19 01:17:13;;;;;;;0.40;0.35;;;;;;;;;;5000501;28;20039;-74
2021/07/19 01:19:41;;;;;;;2.28;0.30;;;;;;;;;;5010458;28;20025;-73
2021/07/19 01:22:26;;;;;;;2.67;0.40;;;;;;;;;;5005081;28;20034;-73
2021/07/19 01:25:06;;;;;;;3.22;1.10;;;;;;;;;;5002363;28;20487;-72
2021/07/19 01:27:52;;;;;;;2.42;0.60;;;;;;;;;;5004009;28;20045;-72
2021/07/19 01:30:19;;;;;;;2.90;0.82;;;;;;;;;;5001308;28;20023;-73
2021/07/19 01:32:47;;;;;;;4.40;0.30;;;;;;;;;;5004507;28;20053;-74
2021/07/19 01:35:15;;;;;;;1.05;0.35;;;;;;;;;;4994435;28;20389;-73
2021/07/19 01:37:44;;;;;;;1.75;0.50;;;;;;;;;;5004812;28;20030;-74
2021/07/19 01:40:11;;;;;;;0.82;0.20;;;;;;;;;;5008330;28;20430;-73
2021/07/19 01:42:40;;;;;;;0.80;0.20;;;;;;;;;;5010665;28;20026;-73
2021/07/19 01:45:08;;;;;;;2.25;0.30;;;;;;;;;;4994873;28;20375;-73
2021/07/19 01:47:36;;;;;;;2.13;0.52;;;;;;;;;;5006908;28;20030;-73
2021/07/19 01:50:06;;;;;;;2.15;0.43;;;;;;;;;;4992871;28;20425;-70
2021/07/19 01:52:33;;;;;;;4.20;0.55;;;;;;;;;;5018066;28;20053;-72
2021/07/19 01:55:01;;;;;;;1.13;0.30;;;;;;;;;;5011776;28;20022;-72
2021/07/19 01:57:28;;;;;;;0.85;0.30;;;;;;;;;;5010791;28;20043;-72
2021/07/19 01:59:55;;;;;;;0.93;0.50;;;;;;;;;;5017810;28;20438;-71
2021/07/19 02:02:23;;;;;;;0.80;0.20;;;;;;;;;;5014504;28;20037;-73
2021/07/19 02:04:50;;;;;;;0.85;0.10;;;;;;;;;;5025513;28;20057;-73
2021/07/19 02:07:18;;;;;;;0.70;0.50;;;;;;;;;;5021311;28;20036;-73
2021/07/19 02:09:46;;;;;;;1.05;0.40;;;;;;;;;;5012820;28;20081;-73
2021/07/19 02:12:13;;;;;;;0.90;0.20;;;;;;;;;;5007884;28;20499;-73
2021/07/19 02:14:41;;;;;;;2.58;0.30;;;;;;;;;;5016845;28;20539;-73
2021/07/19 02:17:09;;;;;;;0.85;0.30;;;;;;;;;;5017426;28;20494;-73
2021/07/19 02:19:37;;;;;;;1.63;0.25;;;;;;;;;;5010870;28;20029;-73
2021/07/19 02:22:04;;;;;;;1.85;0.70;;;;;;;;;;5009829;28;20030;-74
2021/07/19 02:24:32;;;;;;;0.90;0.40;;;;;;;;;;5011990;28;20040;-74
2021/07/19 02:26:59;;;;;;;2.20;0.40;;;;;;;;;;5019239;28;20022;-74
2021/07/19 02:29:28;;;;;;;1.65;0.50;;;;;;;;;;4997973;28;20295;-74
2021/07/19 02:31:55;;;;;;;2.08;0.60;;;;;;;;;;5020938;28;20033;-73
2021/07/19 02:34:22;;;;;;;2.70;0.65;;;;;;;;;;5021212;28;20493;-72
2021/07/19 02:36:50;;;;;;;0.80;0.30;;;;;;;;;;5011925;28;20486;-71
2021/07/19 02:39:18;;;;;;;1.13;0.30;;;;;;;;;;4993537;28;20440;-73
2021/07/19 02:41:46;;;;;;;1.55;0.60;;;;;;;;;;5010960;28;20052;-73
2021/07/19 02:44:13;;;;;;;1.08;0.17;;;;;;;;;;4994344;28;20450;-74
2021/07/19 02:46:40;;;;;;;2.70;0.20;;;;;;;;;;5008649;28;20030;-73
2021/07/19 02:49:11;;;;;;;0.70;0.30;;;;;;;;;;4994848;28;20030;-74
2021/07/19 02:51:39;;;;;;;1.92;0.30;;;;;;;;;;5010480;28;20026;-74
2021/07/19 02:54:07;;;;;;;0.75;0.20;;;;;;;;;;5012766;28;20028;-73
2021/07/19 02:56:38;;;;;;;1.15;0.20;;;;;;;;;;5008358;28;20022;-74
2021/07/19 02:59:05;;;;;;;3.05;0.20;;;;;;;;;;4994181;28;20108;-74
2021/07/19 03:01:33;;;;;;;1.73;0.30;;;;;;;;;;5010952;28;20026;-74
2021/07/19 03:04:01;;;;;;;2.00;0.20;;;;;;;;;;5008628;28;20061;-74
2021/07/19 03:06:33;;;;;;;1.27;0.17;;;;;;;;;;5008542;28;20371;-73
2021/07/19 03:09:02;;;;;;;0.65;0.30;;;;;;;;;;5008412;28;20058;-73
2021/07/19 03:11:29;;;;;;;0.90;0.20;;;;;;;;;;5007658;28;20021;-73
2021/07/19 03:13:58;;;;;;;0.85;0.20;;;;;;;;;;5001570;28;20100;-74
2021/07/19 03:16:27;;;;;;;2.08;0.25;;;;;;;;;;4998900;28;20032;-73
2021/07/19 03:19:01;;;;;;;1.90;0.20;;;;;;;;;;5022584;28;20438;-73
2021/07/19 03:21:30;;;;;;;0.63;0.17;;;;;;;;;;5010139;28;20064;-72
2021/07/19 03:23:58;;;;;;;1.10;0.28;;;;;;;;;;5004836;28;20061;-73
2021/07/19 03:26:27;;;;;;;0.60;0.10;;;;;;;;;;5007598;28;20044;-71
2021/07/19 03:28:55;;;;;;;0.93;0.20;;;;;;;;;;5005394;28;20053;-71
2021/07/19 03:31:22;;;;;;;1.27;0.20;;;;;;;;;;5009608;28;20029;-70
2021/07/19 03:33:50;;;;;;;0.32;0.15;;;;;;;;;;5009238;28;20483;-71
2021/07/19 03:36:18;;;;;;;1.15;0.20;;;;;;;;;;5001050;28;20030;-71
2021/07/19 03:38:46;;;;;;;1.38;0.30;;;;;;;;;;5004581;28;21465;-71
2021/07/19 03:41:13;;;;;;;0.85;0.17;;;;;;;;;;5005182;28;20109;-72
2021/07/19 03:43:41;;;;;;;0.10;0.10;;;;;;;;;;5006644;28;20069;-72
2021/07/19 03:46:08;;;;;;;0.35;0.10;;;;;;;;;;5002098;28;20030;-70
2021/07/19 03:48:36;;;;;;;0.38;0.10;;;;;;;;;;5007308;28;20499;-71
2021/07/19 03:51:03;;;;;;;0.65;0.10;;;;;;;;;;5000642;28;20022;-72
2021/07/19 03:53:31;;;;;;;0.75;0.10;;;;;;;;;;4999601;28;20042;-72
2021/07/19 03:55:59;;;;;;;1.35;0.63;;;;;;;;;;5007283;28;20025;-71
2021/07/19 03:58:26;;;;;;;0.50;0.10;;;;;;;;;;5004552;28;20072;-71
2021/07/19 04:00:54;;;;;;;1.27;0.10;;;;;;;;;;5007908;28;20030;-72
2021/07/19 04:03:27;;;;;;;1.15;0.20;;;;;;;;;;5007976;28;20026;-71
2021/07/19 04:06:00;;;;;;;0.73;0.13;;;;;;;;;;4992687;28;20510;-71
2021/07/19 04:08:31;;;;;;;0.28;0.10;;;;;;;;;;5007451;28;20038;-73
2021/07/19 04:10:58;;;;;;;0.73;0.20;;;;;;;;;;5008927;28;20033;-73
2021/07/19 04:13:26;;;;;;;1.27;0.20;;;;;;;;;;5010002;28;20056;-73
2021/07/19 04:15:54;;;;;;;2.47;0.20;;;;;;;;;;5005098;28;20075;-73
2021/07/19 04:18:22;;;;;;;1.65;0.20;;;;;;;;;;5004565;28;20025;-73
2021/07/19 04:20:52;;;;;;;0.90;0.20;;;;;;;;;;5011768;28;20026;-74
2021/07/19 04:23:20;;;;;;;0.68;0.17;;;;;;;;;;5013243;28;20142;-75
2021/07/19 04:25:47;;;;;;;0.25;0.10;;;;;;;;;;5013782;28;20018;-74
2021/07/19 04:28:15;;;;;;;0.10;0.10;;;;;;;;;;4994307;28;20030;-70
2021/07/19 04:30:42;;;;;;;0.77;0.10;;;;;;;;;;5010957;28;20137;-73
2021/07/19 04:33:09;;;;;;;0.75;0.20;;;;;;;;;;5011627;28;20061;-73
2021/07/19 04:35:37;;;;;;;13.95;1.25;;;;;;;;;;5012353;28;20506;-72
2021/07/19 04:38:04;;;;;;;1.25;0.68;;;;;;;;;;5004750;28;20067;-73
2021/07/19 04:40:31;;;;;;;0.55;0.15;;;;;;;;;;5010718;28;20018;-74
2021/07/19 04:42:58;;;;;;;0.10;0.10;;;;;;;;;;5012135;28;20026;-73
2021/07/19 04:45:25;;;;;;;0.22;0.13;;;;;;;;;;4994746;28;20038;-73
2021/07/19 04:47:52;;;;;;;0.77;0.10;;;;;;;;;;4997488;28;20033;-74
2021/07/19 04:50:20;;;;;;;0.28;0.17;;;;;;;;;;5008551;28;20026;-71
2021/07/19 04:52:48;;;;;;;0.80;0.20;;;;;;;;;;4995303;28;20426;-72
2021/07/19 04:55:25;;;;;;;0.38;0.20;;;;;;;;;;5008839;28;20105;-73
2021/07/19 04:57:53;;;;;;;0.50;0.20;;;;;;;;;;5007726;28;20025;-74
2021/07/19 05:00:21;;;;;;;0.63;0.10;;;;;;;;;;5011074;28;20578;-74
2021/07/19 05:02:49;;;;;;;0.43;0.10;;;;;;;;;;5009154;28;20076;-73
2021/07/19 05:05:17;;;;;;;0.30;0.22;;;;;;;;;;4994560;28;20048;-74
2021/07/19 05:07:45;;;;;;;0.15;0.10;;;;;;;;;;5007204;28;20497;-73
2021/07/19 05:10:16;;;;;;;0.30;0.22;;;;;;;;;;5009143;28;20076;-73
2021/07/19 05:12:44;;;;;;;3.60;0.95;;;;;;;;;;5005998;28;20030;-72
2021/07/19 05:15:15;;;;;;;1.33;0.10;;;;;;;;;;5006537;28;20026;-72
2021/07/19 05:17:42;;;;;;;0.52;0.15;;;;;;;;;;5006077;28;20132;-73
2021/07/19 05:20:11;;;;;;;0.50;0.25;;;;;;;;;;4995916;28;20116;-73
2021/07/19 05:22:38;;;;;;;0.73;0.20;;;;;;;;;;4995499;28;20064;-73
2021/07/19 05:25:06;;;;;;;0.63;0.20;;;;;;;;;;5013896;28;20021;-73
2021/07/19 05:27:33;;;;;;;0.57;0.20;;;;;;;;;;4995157;28;20453;-72
2021/07/19 05:30:00;;;;;;;1.05;0.25;;;;;;;;;;4996088;28;20026;-74
2021/07/19 05:32:28;;;;;;;1.83;0.40;;;;;;;;;;4990456;28;20038;-73
2021/07/19 05:34:55;;;;;;;0.30;0.22;;;;;;;;;;5006424;28;20025;-71
2021/07/19 05:37:24;;;;;;;2.08;0.50;;;;;;;;;;5011577;28;20034;-71
2021/07/19 05:39:51;;;;;;;1.88;0.45;;;;;;;;;;5014622;28;20029;-72
2021/07/19 05:42:18;;;;;;;0.50;0.30;;;;;;;;;;4994602;28;20030;-72
2021/07/19 05:44:45;;;;;;;0.88;0.28;;;;;;;;;;5014496;28;20040;-72
2021/07/19 05:47:12;;;;;;;0.63;0.30;;;;;;;;;;4992836;28;20037;-72
2021/07/19 05:49:39;;;;;;;0.20;0.20;;;;;;;;;;5005263;28;20030;-73
2021/07/19 05:52:07;;;;;;;0.90;0.40;;;;;;;;;;5012654;28;20538;-71
2021/07/19 05:54:34;;;;;;;1.67;0.30;;;;;;;;;;4994393;28;20029;-72
2021/07/19 05:57:01;;;;;;;1.33;0.40;;;;;;;;;;5020223;28;20390;-72
2021/07/19 05:59:28;;;;;;;0.30;0.17;;;;;;;;;;5013493;28;20483;-73
2021/07/19 06:01:55;;;;;;;0.22;0.15;;;;;;;;;;5012609;28;20029;-72
2021/07/19 06:04:22;;;;;;;2.08;0.20;;;;;;;;;;5014147;28;20364;-72
2021/07/19 06:06:50;;;;;;;2.63;0.30;;;;;;;;;;5009945;28;20076;-73
2021/07/19 06:09:17;;;;;;;0.60;0.20;;;;;;;;;;5011898;28;20046;-72
2021/07/19 06:11:44;;;;;;;1.23;0.38;;;;;;;;;;5008541;28;20021;-70
2021/07/19 06:14:11;;;;;;;0.70;0.30;;;;;;;;;;5007458;28;20029;-71
2021/07/19 06:16:39;;;;;;;2.38;0.30;;;;;;;;;;5006026;28;20367;-72
2021/07/19 06:19:06;;;;;;;2.40;0.30;;;;;;;;;;5010374;28;20409;-71
2021/07/19 06:21:33;;;;;;;1.35;0.45;;;;;;;;;;5008670;28;20554;-71
2021/07/19 06:24:00;;;;;;;0.52;0.17;;;;;;;;;;5007135;28;20068;-71
2021/07/19 06:26:27;;;;;;;0.57;0.20;;;;;;;;;;5009202;28;20582;-71
2021/07/19 06:28:54;;;;;;;1.00;0.30;;;;;;;;;;5012735;28;20033;-71
2021/07/19 06:31:22;;;;;;;0.75;0.15;;;;;;;;;;4992071;28;20034;-71
2021/07/19 06:33:49;;;;;;;0.82;0.20;;;;;;;;;;5001074;28;20044;-72
2021/07/19 06:36:16;;;;;;;0.60;0.10;;;;;;;;;;4990773;28;20129;-70
2021/07/19 06:38:43;;;;;;;1.48;0.30;;;;;;;;;;4994304;28;20084;-71
2021/07/19 06:41:12;;;;;;;0.43;0.15;;;;;;;;;;5010348;28;20026;-71
2021/07/19 06:43:40;;;;;;;0.38;0.03;;;;;;;;;;5006085;28;20061;-68
2021/07/19 06:46:07;;;;;;;2.33;0.57;;;;;;;;;;4997359;28;20027;-68
2021/07/19 06:48:35;;;;;;;0.98;0.15;;;;;;;;;;5012667;28;20030;-68
2021/07/19 06:51:03;;;;;;;0.73;0.28;;;;;;;;;;5011982;28;20112;-68
2021/07/19 06:53:30;;;;;;;0.93;0.28;;;;;;;;;;5011817;28;20565;-68
2021/07/19 06:55:57;;;;;;;0.63;0.20;;;;;;;;;;5008648;28;20398;-68
2021/07/19 06:58:24;;;;;;;1.30;0.40;;;;;;;;;;5012814;28;20022;-68
2021/07/19 07:00:52;;;;;;;1.08;0.30;;;;;;;;;;5012862;28;20022;-68
2021/07/19 07:03:19;;;;;;;1.33;0.30;;;;;;;;;;5011680;28;20109;-68
2021/07/19 07:05:46;;;;;;;1.20;0.28;;;;;;;;;;4995795;28;20121;-68
2021/07/19 07:08:13;;;;;;;2.42;0.20;;;;;;;;;;4992170;28;20026;-68
2021/07/19 07:10:40;;;;;;;1.50;0.47;;;;;;;;;;5010613;28;20049;-68
2021/07/19 07:13:10;;;;;;;0.95;0.30;;;;;;;;;;5007411;28;20034;-68
2021/07/19 07:15:38;;;;;;;0.50;0.20;;;;;;;;;;5012424;28;20033;-68
2021/07/19 07:18:09;;;;;;;1.98;0.52;;;;;;;;;;5007185;28;20490;-68
2021/07/19 07:20:36;;;;;;;1.42;0.40;;;;;;;;;;5010535;28;20030;-68
2021/07/19 07:23:04;;;;;;;0.50;0.30;;;;;;;;;;5005690;28;20034;-68
2021/07/19 07:25:31;;;;;;;0.85;0.32;;;;;;;;;;5009096;28;20490;-68
2021/07/19 07:27:58;;;;;;;1.83;0.30;;;;;;;;;;5008274;28;20561;-67
2021/07/19 07:30:26;;;;;;;2.22;0.35;;;;;;;;;;5005538;28;20042;-68
2021/07/19 07:32:53;;;;;;;3.00;0.40;;;;;;;;;;5005324;28;20396;-68
2021/07/19 07:35:21;;;;;;;1.40;0.50;;;;;;;;;;5012002;28;20022;-68
2021/07/19 07:37:48;;;;;;;2.30;0.50;;;;;;;;;;5010835;28;20104;-68
2021/07/19 07:40:17;;;;;;;1.20;0.38;;;;;;;;;;4994813;28;20430;-68
2021/07/19 07:42:44;;;;;;;0.98;0.30;;;;;;;;;;4992584;28;20564;-68
2021/07/19 07:45:11;;;;;;;3.42;0.60;;;;;;;;;;5011770;28;20057;-68
2021/07/19 07:47:41;;;;;;;1.30;0.50;;;;;;;;;;4991469;28;20561;-69
2021/07/19 07:50:09;;;;;;;1.38;0.35;;;;;;;;;;5007116;28;20033;-68
2021/07/19 07:52:36;;;;;;;1.15;0.50;;;;;;;;;;5007045;28;20109;-69
2021/07/19 07:55:04;;;;;;;1.70;0.70;;;;;;;;;;5010805;28;20062;-69
2021/07/19 07:57:31;;;;;;;3.67;0.55;;;;;;;;;;5009907;28;20099;-69
2021/07/19 07:59:58;;;;;;;2.58;0.52;;;;;;;;;;5011933;28;20118;-68
2021/07/19 08:02:25;;;;;;;1.30;0.55;;;;;;;;;;4991842;28;20109;-68
2021/07/19 08:04:52;;;;;;;2.88;0.93;;;;;;;;;;4992205;28;20124;-68
2021/07/19 08:07:19;;;;;;;2.33;0.70;;;;;;;;;;5006110;28;20446;-68
2021/07/19 08:09:47;;;;;;;1.75;0.63;;;;;;;;;;5008104;28;20050;-72
2021/07/19 08:12:14;;;;;;;1.90;0.70;;;;;;;;;;5002288;28;20035;-74
2021/07/19 08:14:41;;;;;;;1.70;0.70;;;;;;;;;;5001922;28;20435;-74
2021/07/19 08:17:08;;;;;;;2.90;0.90;;;;;;;;;;5002118;28;20557;-72
2021/07/19 08:19:35;;;;;;;2.92;0.95;;;;;;;;;;5005626;28;20032;-74
2021/07/19 08:22:02;;;;;;;1.85;0.90;;;;;;;;;;4990497;28;20025;-71
2021/07/19 08:24:31;;;;;;;4.03;1.00;;;;;;;;;;5008127;28;20021;-72
2021/07/19 08:26:58;;;;;;;2.25;1.05;;;;;;;;;;5007969;28;20054;-73
2021/07/19 08:29:25;;;;;;;2.25;0.80;;;;;;;;;;5010689;28;20105;-73
2021/07/19 08:31:52;;;;;;;2.03;1.25;;;;;;;;;;5007979;28;20018;-72
2021/07/19 08:34:19;;;;;;;2.50;1.30;;;;;;;;;;5008703;28;20053;-72
2021/07/19 08:36:47;;;;;;;4.07;1.35;;;;;;;;;;5008662;28;20018;-72
2021/07/19 08:39:14;;;;;;;4.03;1.65;;;;;;;;;;5010803;28;20034;-73
2021/07/19 08:41:41;;;;;;;4.32;1.90;;;;;;;;;;5009809;28;20382;-73
2021/07/19 08:44:10;;;;;;;5.55;1.52;;;;;;;;;;4994058;28;20045;-71
2021/07/19 08:46:38;;;;;;;4.78;2.03;;;;;;;;;;5008336;28;20109;-72
2021/07/19 08:49:06;;;;;;;5.43;2.97;;;;;;;;;;4991974;28;20418;-72
2021/07/19 08:51:33;;;;;;;7.82;3.80;;;;;;;;;;4991401;28;20075;-74
2021/07/19 08:54:01;;;;;;;5.18;2.65;;;;;;;;;;5010466;28;20042;-72
2021/07/19 08:56:32;;;;;;;6.22;3.72;;;;;;;;;;5007280;28;20105;-72
2021/07/19 08:58:59;;;;;;;3.95;2.50;;;;;;;;;;4994219;28;20026;-68
2021/07/19 09:01:26;;;;;;;3.63;2.03;;;;;;;;;;5010835;28;20100;-69
2021/07/19 09:03:53;;;;;;;4.93;2.55;;;;;;;;;;5005021;28;20837;-69
2021/07/19 09:06:21;;;;;;;7.10;2.63;;;;;;;;;;5008830;28;20483;-69
2021/07/19 09:08:52;;;;;;;6.65;3.08;;;;;;;;;;5013422;28;20449;-68
2021/07/19 09:11:20;;;;;;;6.18;2.70;;;;;;;;;;5011437;28;20029;-70
2021/07/19 09:14:16;;;;;;;5.75;3.20;;;;;;;;;;5013340;28;20486;-70
2021/07/19 09:16:44;;;;;;;5.57;2.67;;;;;;;;;;4981578;28;20394;-72
2021/07/19 09:19:12;;;;;;;4.45;2.55;;;;;;;;;;5013834;28;20030;-71
2021/07/19 09:21:40;;;;;;;7.00;3.13;;;;;;;;;;4995238;28;20441;-69
2021/07/19 09:24:09;;;;;;;7.72;2.80;;;;;;;;;;5014570;28;20497;-72
2021/07/19 09:26:37;;;;;;;7.82;3.38;;;;;;;;;;5012536;28;20095;-73
2021/07/19 09:29:05;;;;;;;5.28;2.85;;;;;;;;;;4996768;28;20529;-74
2021/07/19 09:31:36;;;;;;;5.40;3.25;;;;;;;;;;4994521;28;20065;-74
2021/07/19 09:34:05;;;;;;;4.57;2.65;;;;;;;;;;5011895;28;20097;-73
2021/07/19 09:36:32;;;;;;;6.05;2.50;;;;;;;;;;5011140;28;20084;-73
2021/07/19 09:39:07;;;;;;;8.05;5.18;;;;;;;;;;5012538;28;20022;-73
2021/07/19 09:41:34;;;;;;;9.20;4.53;;;;;;;;;;5012599;28;20024;-73
2021/07/19 09:44:07;;;;;;;4.35;2.78;;;;;;;;;;4996260;28;20038;-73
2021/07/19 09:46:34;;;;;;;4.57;3.03;;;;;;;;;;5011768;28;20403;-73
2021/07/19 09:49:02;;;;;;;7.90;3.10;;;;;;;;;;5013267;28;20026;-73
2021/07/19 09:51:29;;;;;;;6.50;3.38;;;;;;;;;;5011336;28;20364;-72
2021/07/19 09:53:56;;;;;;;8.52;3.60;;;;;;;;;;4996036;28;20076;-73
2021/07/19 09:56:24;;;;;;;8.48;2.90;;;;;;;;;;5012680;28;20022;-74
2021/07/19 09:58:52;;;;;;;5.15;2.63;;;;;;;;;;5003668;28;20479;-74
2021/07/19 10:01:30;;;;;;;6.68;2.63;;;;;;;;;;5012581;28;20510;-74
2021/07/19 10:04:18;;;;;;;8.32;3.08;;;;;;;;;;5004092;28;20021;-74
2021/07/19 10:06:55;;;;;;;7.40;3.28;;;;;;;;;;5030746;28;20072;-73
2021/07/19 10:09:22;;;;;;;5.70;2.97;;;;;;;;;;5013105;28;20049;-74
2021/07/19 10:11:49;;;;;;;6.93;3.55;;;;;;;;;;5015091;28;20029;-74
2021/07/19 10:14:34;;;;;;;5.40;3.67;;;;;;;;;;5006916;28;20045;-74
2021/07/19 10:17:05;;;;;;;5.85;3.35;;;;;;;;;;5002734;28;20022;-73
2021/07/19 10:19:34;;;;;;;6.43;3.30;;;;;;;;;;5011828;28;20030;-73
2021/07/19 10:22:02;;;;;;;7.53;3.03;;;;;;;;;;5014560;28;20491;-74
2021/07/19 10:24:29;;;;;;;6.38;3.20;;;;;;;;;;5013272;28;20050;-73
2021/07/19 10:26:56;;;;;;;6.97;3.40;;;;;;;;;;5007757;28;20037;-73
2021/07/19 10:29:23;;;;;;;8.02;4.40;;;;;;;;;;4994460;28;20030;-73
2021/07/19 10:31:51;;;;;;;23.98;9.32;;;;;;;;;;4995466;28;20057;-73
2021/07/19 10:34:19;;;;;;;26.85;11.45;;;;;;;;;;5012176;28;20037;-73
2021/07/19 10:36:52;;;;;;;32.63;11.95;;;;;;;;;;5006406;28;20089;-74
2021/07/19 10:39:24;;;;;;;12.93;6.43;;;;;;;;;;5007325;28;20026;-73
2021/07/19 10:42:02;;;;;;;9.32;3.83;;;;;;;;;;5015531;28;20510;-73
2021/07/19 10:44:39;;;;;;;8.35;4.22;;;;;;;;;;5013177;28;20026;-73
2021/07/19 10:47:16;;;;;;;6.05;3.80;;;;;;;;;;5010038;28;20105;-73
2021/07/19 10:49:57;;;;;;;6.05;2.92;;;;;;;;;;4996746;28;20066;-74
2021/07/19 10:52:32;;;;;;;5.70;3.13;;;;;;;;;;4989177;28;20038;-74
2021/07/19 10:55:02;;;;;;;7.85;3.80;;;;;;;;;;4995159;28;20124;-73
2021/07/19 10:57:40;;;;;;;7.70;3.20;;;;;;;;;;4996411;28;20099;-73
2021/07/19 11:00:09;;;;;;;8.18;3.80;;;;;;;;;;4978474;28;20439;-73
2021/07/19 11:02:36;;;;;;;7.45;3.92;;;;;;;;;;4973810;28;20046;-72
2021/07/19 11:05:04;;;;;;;6.45;3.78;;;;;;;;;;4991910;28;20018;-73
2021/07/19 11:07:39;;;;;;;6.47;3.55;;;;;;;;;;5012658;28;20018;-73
2021/07/19 11:10:26;;;;;;;7.25;3.28;;;;;;;;;;5031217;28;20085;-73
2021/07/19 11:12:56;;;;;;;5.18;2.95;;;;;;;;;;5015958;28;20103;-73
2021/07/19 11:15:33;;;;;;;4.95;3.92;;;;;;;;;;5016021;28;20029;-74
2021/07/19 11:18:12;;;;;;;7.10;3.92;;;;;;;;;;5015627;28;20056;-74
2021/07/19 11:20:44;;;;;;;6.72;3.67;;;;;;;;;;5010521;28;20578;-74
2021/07/19 11:23:12;;;;;;;6.30;2.88;;;;;;;;;;5006669;28;20064;-74
2021/07/19 11:25:41;;;;;;;4.65;3.47;;;;;;;;;;5033738;28;20433;-73
2021/07/19 11:28:16;;;;;;;4.90;3.08;;;;;;;;;;5031220;28;20514;-73
2021/07/19 11:30:42;;;;;;;;;;;;;;;;;;5033289;28;20486;-73
2021/07/19 11:33:13;;;;;;;5.32;2.92;;;;;;;;;;5006363;28;19925;-73
2021/07/19 11:35:41;;;;;;;5.05;2.38;;;;;;;;;;5007235;28;20033;-72
2021/07/19 11:38:17;;;;;;;4.05;2.20;;;;;;;;;;5008093;28;20026;-73
2021/07/19 11:40:44;;;;;;;5.88;2.10;;;;;;;;;;5029852;28;20108;-73
2021/07/19 11:43:15;;;;;;;2.53;1.73;;;;;;;;;;5031747;28;20025;-73
2021/07/19 11:45:43;;;;;;;4.45;2.28;;;;;;;;;;5018344;28;20049;-73
2021/07/19 11:48:10;;;;;;;4.63;1.75;;;;;;;;;;5009615;28;20422;-73
2021/07/19 11:50:38;;;;;;;2.83;1.60;;;;;;;;;;5020209;28;20482;-73
2021/07/19 11:53:05;;;;;;;3.08;1.65;;;;;;;;;;5022418;28;20109;-73
2021/07/19 11:55:34;;;;;;;2.55;1.90;;;;;;;;;;5019859;28;20049;-73
2021/07/19 11:58:06;;;;;;;2.83;1.73;;;;;;;;;;5018681;28;20025;-73
2021/07/19 12:00:38;;;;;;;3.75;1.73;;;;;;;;;;5021939;28;20022;-73
2021/07/19 12:03:13;;;;;;;4.85;2.03;;;;;;;;;;5023641;28;20515;-73
2021/07/19 12:05:53;;;;;;;4.32;1.80;;;;;;;;;;5013974;28;20088;-73
2021/07/19 12:08:27;;;;;;;4.38;1.92;;;;;;;;;;5029462;28;20063;-73
2021/07/19 12:11:02;;;;;;;3.65;1.70;;;;;;;;;;5020292;28;20020;-73
2021/07/19 12:13:36;;;;;;;3.65;1.98;;;;;;;;;;4996946;28;20030;-73
2021/07/19 12:16:03;;;;;;;;;;;;;;;;;;5026320;28;20129;-73
2021/07/19 12:18:34;;;;;;;3.15;1.75;;;;;;;;;;5021078;28;20356;-73
2021/07/19 12:21:04;;;;;;;4.15;1.83;;;;;;;;;;5004017;28;20026;-74
2021/07/19 12:23:49;;;;;;;2.55;1.85;;;;;;;;;;4998228;28;20022;-72
2021/07/19 12:26:19;;;;;;;4.68;2.13;;;;;;;;;;5002673;28;20066;-73
2021/07/19 12:28:57;;;;;;;3.03;1.88;;;;;;;;;;5000688;28;20037;-73
2021/07/19 12:31:28;;;;;;;5.35;2.28;;;;;;;;;;5016326;28;20048;-73
2021/07/19 12:33:55;;;;;;;3.58;1.73;;;;;;;;;;5029305;28;20402;-72
2021/07/19 12:36:23;;;;;;;2.42;1.65;;;;;;;;;;5007170;28;20068;-73
2021/07/19 12:38:50;;;;;;;4.25;2.10;;;;;;;;;;5025105;28;20117;-73
2021/07/19 12:41:18;;;;;;;6.03;2.60;;;;;;;;;;5026339;28;20040;-73
2021/07/19 12:43:45;;;;;;;3.67;2.20;;;;;;;;;;5034566;28;20413;-74
2021/07/19 12:46:13;;;;;;;4.60;2.40;;;;;;;;;;5022215;28;20032;-72
2021/07/19 12:48:47;;;;;;;4.45;2.63;;;;;;;;;;5025703;28;20026;-75
2021/07/19 12:51:15;;;;;;;2.75;2.08;;;;;;;;;;5015315;28;20084;-74
2021/07/19 12:53:42;;;;;;;4.15;2.60;;;;;;;;;;5024763;28;20387;-73
2021/07/19 12:56:10;;;;;;;4.90;2.30;;;;;;;;;;5026261;28;20032;-73
2021/07/19 12:58:38;;;;;;;6.28;2.25;;;;;;;;;;5009809;28;20049;-73
2021/07/19 13:01:10;;;;;;;7.75;2.60;;;;;;;;;;5026449;28;20390;-73
2021/07/19 13:03:37;;;;;;;4.10;1.67;;;;;;;;;;5025162;28;20099;-73
2021/07/19 13:06:05;;;;;;;2.88;1.92;;;;;;;;;;5030320;28;20036;-73
2021/07/19 13:08:33;;;;;;;3.40;1.40;;;;;;;;;;5033297;28;20411;-73
2021/07/19 13:11:26;;;;;;;3.25;1.40;;;;;;;;;;5033820;28;20135;-73
2021/07/19 13:13:53;;;;;;;2.45;1.40;;;;;;;;;;4999838;28;20050;-73
2021/07/19 13:16:24;;;;;;;2.50;1.50;;;;;;;;;;5030406;28;20022;-73
2021/07/19 13:18:58;;;;;;;2.70;1.35;;;;;;;;;;5033159;28;20501;-73
2021/07/19 13:21:28;;;;;;;3.17;1.20;;;;;;;;;;5009390;28;20054;-72
2021/07/19 13:23:56;;;;;;;1.92;1.17;;;;;;;;;;5032071;28;20037;-72
2021/07/19 13:26:23;;;;;;;4.22;1.55;;;;;;;;;;5016252;28;20052;-73
2021/07/19 13:28:50;;;;;;;3.70;1.27;;;;;;;;;;5030477;28;20490;-72
2021/07/19 13:31:20;;;;;;;2.83;1.15;;;;;;;;;;5001273;28;20056;-73
2021/07/19 13:33:47;;;;;;;4.45;1.45;;;;;;;;;;5031001;28;20060;-73
2021/07/19 13:36:15;;;;;;;3.28;1.00;;;;;;;;;;5033983;28;20044;-74
2021/07/19 13:38:43;;;;;;;2.50;1.25;;;;;;;;;;5007153;28;20034;-73
2021/07/19 13:41:22;;;;;;;1.95;0.93;;;;;;;;;;5031857;28;20029;-73
2021/07/19 13:43:49;;;;;;;3.33;1.00;;;;;;;;;;5023029;28;20022;-74
2021/07/19 13:46:16;;;;;;;3.33;1.30;;;;;;;;;;5022754;28;20426;-72
2021/07/19 13:48:43;;;;;;;2.13;1.30;;;;;;;;;;5021299;28;20482;-73
2021/07/19 13:51:10;;;;;;;3.63;1.13;;;;;;;;;;5018746;28;20018;-73
2021/07/19 13:53:37;;;;;;;1.85;0.95;;;;;;;;;;5012800;28;20034;-72
2021/07/19 13:56:05;;;;;;;1.88;0.90;;;;;;;;;;5018114;28;20033;-74
2021/07/19 13:58:32;;;;;;;4.50;1.35;;;;;;;;;;5033369;28;20026;-71
2021/07/19 14:01:00;;;;;;;2.17;1.00;;;;;;;;;;5015042;28;20028;-73
2021/07/19 14:03:27;;;;;;;1.67;0.80;;;;;;;;;;5014300;28;20022;-73
2021/07/19 14:05:55;;;;;;;1.38;0.95;;;;;;;;;;5027666;28;20381;-72
2021/07/19 14:08:23;;;;;;;3.05;0.70;;;;;;;;;;5028925;28;20100;-73
2021/07/19 14:10:51;;;;;;;3.30;1.52;;;;;;;;;;5011025;28;20109;-73
2021/07/19 14:13:18;;;;;;;2.20;0.80;;;;;;;;;;5031312;28;20086;-72
2021/07/19 14:15:45;;;;;;;2.80;0.98;;;;;;;;;;5014324;28;20045;-73
2021/07/19 14:18:12;;;;;;;3.63;1.00;;;;;;;;;;5032050;28;20088;-73
2021/07/19 14:20:39;;;;;;;2.50;0.80;;;;;;;;;;5031755;28;20613;-73
2021/07/19 14:23:06;;;;;;;3.40;0.98;;;;;;;;;;5033710;28;20031;-73
2021/07/19 14:25:35;;;;;;;2.03;0.88;;;;;;;;;;5031841;28;20021;-74
2021/07/19 14:28:02;;;;;;;2.28;1.20;;;;;;;;;;5025243;28;20097;-73
2021/07/19 14:30:29;;;;;;;2.53;1.00;;;;;;;;;;5022959;28;20378;-73
2021/07/19 14:32:56;;;;;;;1.35;0.70;;;;;;;;;;5021502;28;20387;-72
2021/07/19 14:35:24;;;;;;;2.80;0.70;;;;;;;;;;5021010;28;20021;-73
2021/07/19 14:37:51;;;;;;;1.40;0.55;;;;;;;;;;5022006;28;20032;-73
2021/07/19 14:40:19;;;;;;;4.90;0.80;;;;;;;;;;5011881;28;20030;-73
2021/07/19 14:42:47;;;;;;;2.33;0.60;;;;;;;;;;5027867;28;20393;-73
2021/07/19 14:45:16;;;;;;;1.58;0.60;;;;;;;;;;5026178;28;20025;-73
2021/07/19 14:47:43;;;;;;;2.05;0.88;;;;;;;;;;5012696;28;20026;-73
2021/07/19 14:50:11;;;;;;;1.67;0.70;;;;;;;;;;5018343;28;20021;-73
2021/07/19 14:52:39;;;;;;;2.08;0.80;;;;;;;;;;5030209;28;20037;-72